Time;durP1;ratioP1;P1;durP2;ratioP2;P2;SDS_P1;SDS_P2;PMS_P1;PMS_P2;Temp;Humidity;BMP_temperature;BMP_pressure;BME280_temperature;BME280_humidity;BME280_pressure;Samples;Min_cycle;Max_cycle;Signal;HPM_P1;HPM_P2
2022/05/01 00:01:11;;;;;;;;;;;4.90;99.90;;;;;;5069135;28;19944;-72
2022/05/01 00:03:39;;;;;;;;;;;4.90;99.90;;;;;;5075482;28;20227;-72
2022/05/01 00:06:08;;;;;;;;;;;4.80;99.90;;;;;;5063755;28;20033;-72
2022/05/01 00:08:35;;;;;;;;;;;4.80;99.90;;;;;;5075013;28;19938;-73
2022/05/01 00:11:01;;;;;;;;;;;4.90;99.90;;;;;;5076414;28;19923;-73
2022/05/01 00:13:27;;;;;;;;;;;4.70;99.90;;;;;;5066422;28;19921;-72
2022/05/01 00:15:54;;;;;;;;;;;4.60;99.90;;;;;;5071344;28;19936;-71
2022/05/01 00:18:20;;;;;;;;;;;4.40;99.90;;;;;;5071448;28;19920;-72
2022/05/01 00:20:46;;;;;;;;;;;4.40;99.90;;;;;;5075463;28;20192;-71
2022/05/01 00:23:12;;;;;;;;;;;4.30;99.90;;;;;;5075344;28;20015;-72
2022/05/01 00:25:38;;;;;;;;;;;4.30;99.90;;;;;;5074809;28;20303;-72
2022/05/01 00:28:03;;;;;;;;;;;4.40;99.90;;;;;;5064556;28;19913;-72
2022/05/01 00:30:29;;;;;;;;;;;4.50;99.90;;;;;;5075878;28;19920;-71
2022/05/01 00:38:24;;;;;;;;;;;4.40;99.90;;;;;;5067832;28;20009;-71
2022/05/01 00:40:50;;;;;;;;;;;4.30;99.90;;;;;;5066663;28;19912;-71
2022/05/01 00:43:16;;;;;;;;;;;4.20;99.90;;;;;;5068297;28;19959;-71
2022/05/01 00:45:41;;;;;;;;;;;4.10;99.90;;;;;;5065280;28;20004;-72
2022/05/01 00:48:07;;;;;;;;;;;4.10;99.90;;;;;;5075550;28;19921;-72
2022/05/01 00:50:33;;;;;;;;;;;4.10;99.90;;;;;;5076035;28;19920;-73
2022/05/01 00:52:59;;;;;;;;;;;4.10;99.90;;;;;;5075025;28;19912;-71
2022/05/01 00:55:25;;;;;;;;;;;4.00;99.90;;;;;;5073529;28;19920;-73
2022/05/01 00:57:50;;;;;;;;;;;4.00;99.90;;;;;;5072736;28;19958;-72
2022/05/01 01:00:18;;;;;;;;;;;3.90;99.90;;;;;;5073571;28;19938;-71
2022/05/01 01:02:45;;;;;;;;;;;4.00;99.90;;;;;;5062859;28;20012;-71
2022/05/01 01:05:11;;;;;;;;;;;4.00;99.90;;;;;;5072070;28;19970;-71
2022/05/01 01:07:37;;;;;;;;;;;4.10;99.90;;;;;;5073715;28;19912;-72
2022/05/01 01:10:03;;;;;;;;;;;4.20;99.90;;;;;;5075102;28;20011;-71
2022/05/01 01:15:13;;;;;;;;;;;4.20;99.90;;;;;;5072771;28;19962;-72
2022/05/01 01:17:42;;;;;;;;;;;4.20;99.90;;;;;;5074760;28;19927;-72
2022/05/01 01:20:12;;;;;;;;;;;4.20;99.90;;;;;;5072228;28;19912;-72
2022/05/01 01:22:42;;;;;;;;;;;4.30;99.90;;;;;;5061440;28;20008;-71
2022/05/01 01:25:11;;;;;;;;;;;4.30;99.90;;;;;;5060171;28;19921;-72
2022/05/01 01:27:37;;;;;;;;;;;4.30;99.90;;;;;;5064521;28;20008;-71
2022/05/01 01:32:48;;;;;;;;;;;4.20;99.90;;;;;;5073307;28;20004;-71
2022/05/01 01:35:14;;;;;;;;;;;4.20;99.90;;;;;;5074843;28;19956;-71
2022/05/01 01:37:41;;;;;;;;;;;4.10;99.90;;;;;;5076768;28;20003;-73
2022/05/01 01:40:07;;;;;;;;;;;4.00;99.90;;;;;;5072136;28;20299;-72
2022/05/01 01:42:34;;;;;;;;;;;4.00;99.90;;;;;;5062770;28;19912;-70
2022/05/01 01:45:01;;;;;;;;;;;3.90;99.90;;;;;;5068228;28;19924;-72
2022/05/01 01:47:26;;;;;;;;;;;3.70;99.90;;;;;;5076450;28;19916;-72
2022/05/01 01:49:52;;;;;;;;;;;3.70;99.90;;;;;;5076256;28;19909;-72
2022/05/01 01:52:18;;;;;;;;;;;3.70;99.90;;;;;;5073700;28;19928;-71
2022/05/01 01:54:43;;;;;;;;;;;3.70;99.90;;;;;;5075561;28;20334;-72
2022/05/01 01:57:09;;;;;;;;;;;3.70;99.90;;;;;;5074328;28;20215;-72
2022/05/01 01:59:34;;;;;;;;;;;3.80;99.90;;;;;;5076420;28;19912;-72
2022/05/01 02:02:01;;;;;;;;;;;3.90;99.90;;;;;;5076147;28;19909;-72
2022/05/01 02:04:26;;;;;;;;;;;3.90;99.90;;;;;;5061230;28;20323;-72
2022/05/01 02:06:52;;;;;;;;;;;3.90;99.90;;;;;;5067904;28;19998;-72
2022/05/01 02:09:18;;;;;;;;;;;3.90;99.90;;;;;;5075692;28;19932;-72
2022/05/01 02:11:43;;;;;;;;;;;3.90;99.90;;;;;;5075223;28;20346;-72
2022/05/01 02:14:10;;;;;;;;;;;3.80;99.90;;;;;;5069776;28;20196;-72
2022/05/01 02:16:36;;;;;;;;;;;3.80;99.90;;;;;;5067830;28;20323;-72
2022/05/01 02:19:01;;;;;;;;;;;3.60;99.90;;;;;;5055945;28;19995;-72
2022/05/01 02:21:34;;;;;;;;;;;3.50;99.90;;;;;;5055876;28;19916;-72
2022/05/01 02:24:01;;;;;;;;;;;3.50;99.90;;;;;;5061994;28;19920;-72
2022/05/01 02:26:27;;;;;;;;;;;3.40;99.90;;;;;;5056227;28;19948;-72
2022/05/01 02:28:53;;;;;;;;;;;3.40;99.90;;;;;;5075892;28;19989;-72
2022/05/01 02:31:18;;;;;;;;;;;3.30;99.90;;;;;;5073857;28;19917;-72
2022/05/01 02:33:44;;;;;;;;;;;3.30;99.90;;;;;;5076019;28;19920;-72
2022/05/01 02:36:10;;;;;;;;;;;3.30;99.90;;;;;;5074871;28;19915;-72
2022/05/01 02:38:36;;;;;;;;;;;3.30;99.90;;;;;;5075981;28;19999;-72
2022/05/01 02:41:02;;;;;;;;;;;3.30;99.90;;;;;;5063539;28;19913;-71
2022/05/01 02:43:28;;;;;;;;;;;3.30;99.90;;;;;;5060276;28;20319;-72
2022/05/01 02:45:54;;;;;;;;;;;3.40;99.90;;;;;;5060356;28;19976;-72
2022/05/01 02:48:19;;;;;;;;;;;3.50;99.90;;;;;;5074435;28;19908;-71
2022/05/01 02:50:45;;;;;;;;;;;3.60;99.90;;;;;;5075875;28;19908;-71
2022/05/01 02:53:11;;;;;;;;;;;3.60;99.90;;;;;;5070315;28;19948;-72
2022/05/01 02:55:36;;;;;;;;;;;3.60;99.90;;;;;;5073513;28;19912;-72
2022/05/01 02:58:02;;;;;;;;;;;3.60;99.90;;;;;;5061079;28;19947;-72
2022/05/01 03:00:28;;;;;;;;;;;3.50;99.90;;;;;;5054370;28;20220;-72
2022/05/01 03:02:55;;;;;;;;;;;3.40;99.90;;;;;;5060291;28;20019;-72
2022/05/01 03:05:21;;;;;;;;;;;3.40;99.90;;;;;;5075687;28;20211;-72
2022/05/01 03:07:48;;;;;;;;;;;3.40;99.90;;;;;;5065024;28;19912;-72
2022/05/01 03:10:13;;;;;;;;;;;3.40;99.90;;;;;;5055507;28;19920;-72
2022/05/01 03:12:39;;;;;;;;;;;3.30;99.90;;;;;;5055307;28;19928;-72
2022/05/01 03:15:05;;;;;;;;;;;3.30;99.90;;;;;;5055899;28;19916;-72
2022/05/01 03:22:10;;;;;;;;;;;3.20;99.90;;;;;;5061047;28;19940;-72
2022/05/01 03:23:01;;;;;;;;;;;3.10;99.90;;;;;;5076632;28;19916;-72
2022/05/01 03:25:26;;;;;;;;;;;3.00;99.90;;;;;;5065423;28;19917;-72
2022/05/01 03:27:53;;;;;;;;;;;2.90;99.90;;;;;;5068492;28;19915;-72
2022/05/01 03:30:19;;;;;;;;;;;2.90;99.90;;;;;;5079153;28;19923;-72
2022/05/01 03:32:45;;;;;;;;;;;2.90;99.90;;;;;;5079034;28;19912;-72
2022/05/01 03:35:10;;;;;;;;;;;2.80;99.90;;;;;;5063495;28;20239;-72
2022/05/01 03:37:36;;;;;;;;;;;2.70;99.90;;;;;;5059438;28;19912;-72
2022/05/01 03:40:03;;;;;;;;;;;2.60;99.90;;;;;;5062607;28;19915;-72
2022/05/01 03:42:29;;;;;;;;;;;2.60;99.90;;;;;;5077582;28;19922;-72
2022/05/01 03:44:55;;;;;;;;;;;2.50;99.90;;;;;;5072569;28;19924;-72
2022/05/01 03:47:20;;;;;;;;;;;2.60;99.90;;;;;;5061515;28;20219;-72
2022/05/01 03:49:46;;;;;;;;;;;2.60;99.90;;;;;;5058758;28;20272;-72
2022/05/01 03:52:11;;;;;;;;;;;2.50;99.90;;;;;;5073589;28;19908;-73
2022/05/01 03:54:37;;;;;;;;;;;2.50;99.90;;;;;;5074476;28;19919;-72
2022/05/01 03:57:03;;;;;;;;;;;2.40;99.90;;;;;;5074135;28;20212;-72
2022/05/01 03:59:30;;;;;;;;;;;2.50;99.90;;;;;;5078630;28;19924;-72
2022/05/01 04:01:55;;;;;;;;;;;2.50;99.90;;;;;;5077315;28;19916;-72
2022/05/01 04:04:21;;;;;;;;;;;2.40;99.90;;;;;;5076445;28;19935;-72
2022/05/01 04:06:46;;;;;;;;;;;2.50;99.90;;;;;;5074779;28;20189;-72
2022/05/01 04:09:12;;;;;;;;;;;2.50;99.90;;;;;;5076764;28;19908;-72
2022/05/01 04:11:38;;;;;;;;;;;2.60;99.90;;;;;;5065710;28;19917;-72
2022/05/01 04:14:03;;;;;;;;;;;2.50;99.90;;;;;;5078480;28;20015;-72
2022/05/01 04:16:29;;;;;;;;;;;2.50;99.90;;;;;;5069465;28;19926;-72
2022/05/01 04:18:54;;;;;;;;;;;2.60;99.90;;;;;;5077565;28;19913;-73
2022/05/01 04:21:20;;;;;;;;;;;2.70;99.90;;;;;;5076795;28;19955;-72
2022/05/01 04:23:46;;;;;;;;;;;2.70;99.90;;;;;;5078097;28;20295;-72
2022/05/01 04:26:12;;;;;;;;;;;2.70;99.90;;;;;;5074612;28;19924;-73
2022/05/01 04:28:37;;;;;;;;;;;2.60;99.90;;;;;;5077736;28;19915;-73
2022/05/01 04:31:03;;;;;;;;;;;2.50;99.90;;;;;;5077966;28;19916;-73
2022/05/01 04:33:28;;;;;;;;;;;2.40;99.90;;;;;;5076961;28;19959;-72
2022/05/01 04:35:54;;;;;;;;;;;2.60;99.90;;;;;;5074109;28;19947;-72
2022/05/01 04:38:21;;;;;;;;;;;2.60;99.90;;;;;;5072818;28;19912;-72
2022/05/01 04:40:48;;;;;;;;;;;2.60;99.90;;;;;;5072624;28;20220;-73
2022/05/01 04:43:14;;;;;;;;;;;2.70;99.90;;;;;;5073499;28;19916;-72
2022/05/01 04:45:41;;;;;;;;;;;2.70;99.90;;;;;;5073257;28;19920;-72
2022/05/01 04:48:07;;;;;;;;;;;2.90;99.90;;;;;;5066446;28;19920;-73
2022/05/01 04:50:33;;;;;;;;;;;3.00;99.90;;;;;;5077678;28;19992;-72
2022/05/01 04:53:01;;;;;;;;;;;3.00;99.90;;;;;;5074022;28;20071;-72
2022/05/01 04:55:28;;;;;;;;;;;3.00;99.90;;;;;;5073665;28;19913;-73
2022/05/01 04:57:53;;;;;;;;;;;3.10;99.90;;;;;;5071300;28;20009;-73
2022/05/01 05:00:19;;;;;;;;;;;3.20;99.90;;;;;;5075131;28;19959;-72
2022/05/01 05:02:47;;;;;;;;;;;3.30;99.90;;;;;;5063467;28;19965;-73
2022/05/01 05:05:12;;;;;;;;;;;3.40;99.90;;;;;;5072324;28;19939;-73
2022/05/01 05:07:38;;;;;;;;;;;3.60;99.90;;;;;;5073657;28;20219;-72
2022/05/01 05:10:05;;;;;;;;;;;3.60;99.90;;;;;;5072525;28;19960;-72
2022/05/01 05:12:32;;;;;;;;;;;3.70;99.90;;;;;;5073372;28;20297;-72
2022/05/01 05:15:00;;;;;;;;;;;3.90;99.90;;;;;;5071047;28;19913;-72
2022/05/01 05:17:26;;;;;;;;;;;4.00;99.90;;;;;;5073458;28;19916;-72
2022/05/01 05:19:52;;;;;;;;;;;4.10;99.90;;;;;;5074409;28;19912;-72
2022/05/01 05:22:17;;;;;;;;;;;4.10;99.90;;;;;;5073480;28;19919;-72
2022/05/01 05:24:43;;;;;;;;;;;4.20;99.90;;;;;;5073281;28;20405;-73
2022/05/01 05:27:09;;;;;;;;;;;4.40;99.90;;;;;;5074006;28;19927;-72
2022/05/01 05:29:34;;;;;;;;;;;4.50;99.90;;;;;;5072727;28;19913;-73
2022/05/01 05:32:00;;;;;;;;;;;4.60;99.90;;;;;;5074523;28;20303;-72
2022/05/01 05:34:26;;;;;;;;;;;4.60;99.90;;;;;;5073060;28;20007;-72
2022/05/01 05:36:51;;;;;;;;;;;4.80;99.90;;;;;;5074648;28;20303;-72
2022/05/01 05:39:17;;;;;;;;;;;5.00;99.90;;;;;;5074608;28;19999;-72
2022/05/01 05:41:43;;;;;;;;;;;5.20;99.90;;;;;;5073274;28;20273;-72
2022/05/01 05:44:09;;;;;;;;;;;5.50;99.90;;;;;;5071718;28;19928;-72
2022/05/01 05:46:34;;;;;;;;;;;5.70;99.90;;;;;;5074459;28;19948;-72
2022/05/01 05:49:00;;;;;;;;;;;5.90;99.90;;;;;;5052963;28;20323;-72
2022/05/01 05:51:26;;;;;;;;;;;6.20;99.90;;;;;;5074186;28;19999;-72
2022/05/01 05:53:52;;;;;;;;;;;6.50;99.90;;;;;;5067963;28;20003;-73
2022/05/01 05:56:18;;;;;;;;;;;6.80;99.90;;;;;;5066955;28;19912;-72
2022/05/01 05:58:43;;;;;;;;;;;7.00;99.90;;;;;;5068919;28;19931;-72
2022/05/01 06:01:10;;;;;;;;;;;7.40;99.90;;;;;;5068904;28;19920;-72
2022/05/01 06:03:36;;;;;;;;;;;7.70;99.90;;;;;;5062862;28;19943;-72
2022/05/01 06:06:02;;;;;;;;;;;8.00;99.90;;;;;;5073613;28;19970;-72
2022/05/01 06:08:27;;;;;;;;;;;8.10;99.90;;;;;;5073326;28;20219;-72
2022/05/01 06:10:53;;;;;;;;;;;8.30;99.90;;;;;;5060414;28;19924;-73
2022/05/01 06:13:18;;;;;;;;;;;8.40;99.90;;;;;;5071695;28;20239;-72
2022/05/01 06:15:44;;;;;;;;;;;8.60;99.90;;;;;;5071429;28;20239;-73
2022/05/01 06:18:13;;;;;;;;;;;8.80;99.90;;;;;;5072058;28;19995;-73
2022/05/01 06:20:38;;;;;;;;;;;8.90;99.90;;;;;;5069397;28;19912;-72
2022/05/01 06:23:04;;;;;;;;;;;9.00;99.90;;;;;;5070456;28;20240;-72
2022/05/01 06:25:29;;;;;;;;;;;9.20;99.90;;;;;;5072246;28;19939;-72
2022/05/01 06:27:55;;;;;;;;;;;9.30;99.90;;;;;;5071533;28;19917;-73
2022/05/01 06:30:21;;;;;;;;;;;9.40;99.90;;;;;;5072546;28;19912;-73
2022/05/01 06:32:48;;;;;;;;;;;9.40;99.90;;;;;;5073218;28;19919;-73
2022/05/01 06:35:14;;;;;;;;;;;9.40;99.90;;;;;;5072441;28;20385;-73
2022/05/01 06:37:40;;;;;;;;;;;9.50;99.90;;;;;;5072488;28;20001;-73
2022/05/01 06:40:05;;;;;;;;;;;9.60;99.90;;;;;;5072156;28;19970;-72
2022/05/01 06:42:32;;;;;;;;;;;9.60;99.90;;;;;;5071513;28;20319;-72
2022/05/01 06:44:58;;;;;;;;;;;9.70;99.90;;;;;;5073325;28;19916;-73
2022/05/01 06:47:24;;;;;;;;;;;9.60;99.90;;;;;;5072979;28;20277;-73
2022/05/01 06:49:49;;;;;;;;;;;9.70;99.90;;;;;;5071857;28;19969;-73
2022/05/01 06:52:19;;;;;;;;;;;9.80;99.90;;;;;;5065927;28;19920;-73
2022/05/01 06:54:45;;;;;;;;;;;10.00;99.90;;;;;;5071235;28;19928;-72
2022/05/01 06:57:10;;;;;;;;;;;10.10;99.90;;;;;;5074500;28;19912;-72
2022/05/01 06:59:36;;;;;;;;;;;10.00;99.90;;;;;;5076367;28;19951;-72
2022/05/01 07:02:01;;;;;;;;;;;9.90;99.90;;;;;;5077001;28;19912;-72
2022/05/01 07:04:27;;;;;;;;;;;10.00;99.90;;;;;;5075137;28;19974;-72
2022/05/01 07:06:52;;;;;;;;;;;10.00;99.90;;;;;;5076198;28;19956;-72
2022/05/01 07:09:18;;;;;;;;;;;10.20;99.90;;;;;;5076978;28;20061;-71
2022/05/01 07:11:44;;;;;;;;;;;10.20;99.90;;;;;;5067043;28;20006;-72
2022/05/01 07:14:09;;;;;;;;;;;10.40;99.90;;;;;;5067632;28;19920;-72
2022/05/01 07:16:35;;;;;;;;;;;10.40;99.90;;;;;;5076934;28;19917;-71
2022/05/01 07:19:00;;;;;;;;;;;10.40;99.90;;;;;;5077180;28;19935;-71
2022/05/01 07:21:26;;;;;;;;;;;10.70;99.90;;;;;;5076514;28;20358;-72
2022/05/01 07:23:51;;;;;;;;;;;11.00;99.90;;;;;;5075946;28;19912;-72
2022/05/01 07:26:18;;;;;;;;;;;11.10;99.90;;;;;;5076643;28;19939;-71
2022/05/01 07:28:43;;;;;;;;;;;11.40;99.90;;;;;;5076956;28;20316;-72
2022/05/01 07:31:09;;;;;;;;;;;11.60;99.90;;;;;;5076286;28;19913;-72
2022/05/01 07:33:35;;;;;;;;;;;11.90;99.90;;;;;;5074934;28;19923;-71
2022/05/01 07:36:01;;;;;;;;;;;11.90;99.90;;;;;;5076045;28;19913;-71
2022/05/01 07:38:26;;;;;;;;;;;11.80;99.90;;;;;;5075439;28;20118;-71
2022/05/01 07:40:52;;;;;;;;;;;12.00;99.90;;;;;;5074801;28;19923;-71
2022/05/01 07:43:18;;;;;;;;;;;12.00;99.90;;;;;;5075077;28;20046;-72
2022/05/01 07:45:44;;;;;;;;;;;12.00;99.90;;;;;;5074558;28;20370;-71
2022/05/01 07:48:09;;;;;;;;;;;12.00;99.90;;;;;;5074207;28;19916;-71
2022/05/01 07:50:35;;;;;;;;;;;12.20;99.90;;;;;;5074492;28;20327;-71
2022/05/01 07:53:00;;;;;;;;;;;12.40;99.90;;;;;;5075060;28;20301;-71
2022/05/01 07:55:26;;;;;;;;;;;12.50;99.90;;;;;;5073659;28;19912;-72
2022/05/01 07:57:51;;;;;;;;;;;12.90;99.90;;;;;;5074129;28;19912;-71
2022/05/01 08:00:17;;;;;;;;;;;13.30;99.90;;;;;;5072979;28;19916;-71
2022/05/01 08:05:29;;;;;;;;;;;13.70;99.90;;;;;;5072106;28;19923;-71
2022/05/01 08:07:56;;;;;;;;;;;13.50;99.90;;;;;;5073148;28;20014;-71
2022/05/01 08:10:21;;;;;;;;;;;13.40;99.90;;;;;;5073334;28;20010;-71
2022/05/01 08:12:47;;;;;;;;;;;13.50;99.90;;;;;;5062718;28;20024;-72
2022/05/01 08:15:14;;;;;;;;;;;13.70;99.90;;;;;;5077718;28;20310;-73
2022/05/01 08:17:42;;;;;;;;;;;13.90;99.90;;;;;;5072009;28;20443;-71
2022/05/01 08:22:53;;;;;;;;;;;13.80;99.90;;;;;;5074482;28;19918;-72
2022/05/01 08:25:18;;;;;;;;;;;13.40;99.90;;;;;;5075762;28;20219;-72
2022/05/01 08:27:44;;;;;;;;;;;13.10;99.90;;;;;;5073914;28;19917;-71
2022/05/01 08:30:10;;;;;;;;;;;13.40;99.90;;;;;;5073345;28;20008;-72
2022/05/01 08:32:35;;;;;;;;;;;13.40;99.90;;;;;;5071402;28;20010;-72
2022/05/01 08:35:01;;;;;;;;;;;13.60;99.90;;;;;;5070775;28;19917;-72
2022/05/01 08:37:26;;;;;;;;;;;13.60;99.90;;;;;;5068209;28;19916;-71
2022/05/01 08:39:52;;;;;;;;;;;13.70;99.90;;;;;;5069937;28;20026;-72
2022/05/01 08:42:17;;;;;;;;;;;13.70;99.90;;;;;;5067530;28;20404;-73
2022/05/01 08:44:45;;;;;;;;;;;13.70;99.90;;;;;;5067960;28;19925;-72
2022/05/01 08:47:14;;;;;;;;;;;13.20;99.90;;;;;;5068699;28;19924;-72
2022/05/01 08:49:40;;;;;;;;;;;13.20;99.90;;;;;;5067747;28;19916;-71
2022/05/01 08:52:06;;;;;;;;;;;13.10;99.90;;;;;;5065880;28;19924;-72
2022/05/01 08:54:32;;;;;;;;;;;12.80;99.90;;;;;;5065556;28;19970;-72
2022/05/01 08:56:58;;;;;;;;;;;12.70;99.90;;;;;;5068704;28;19974;-71
2022/05/01 08:59:25;;;;;;;;;;;12.70;99.90;;;;;;5065810;28;19921;-71
2022/05/01 09:01:52;;;;;;;;;;;12.70;99.90;;;;;;5065833;28;20333;-72
2022/05/01 09:04:18;;;;;;;;;;;12.80;99.90;;;;;;5056606;28;20265;-72
2022/05/01 09:06:45;;;;;;;;;;;12.70;99.90;;;;;;5069286;28;19977;-71
2022/05/01 09:09:11;;;;;;;;;;;12.60;99.90;;;;;;5065822;28;19920;-72
2022/05/01 09:14:24;;;;;;;;;;;12.80;99.90;;;;;;5068915;28;19919;-72
2022/05/01 09:17:08;;;;;;;;;;;13.00;99.90;;;;;;5071056;28;19959;-72
2022/05/01 09:19:33;;;;;;;;;;;13.00;99.90;;;;;;5066318;28;19962;-72
2022/05/01 09:22:00;;;;;;;;;;;12.80;99.90;;;;;;5068416;28;19959;-72
2022/05/01 09:24:27;;;;;;;;;;;12.70;99.90;;;;;;5070153;28;19917;-71
2022/05/01 09:26:52;;;;;;;;;;;12.70;99.90;;;;;;5068530;28;19913;-72
2022/05/01 09:29:25;;;;;;;;;;;12.40;99.90;;;;;;5068616;28;20211;-72
2022/05/01 09:31:52;;;;;;;;;;;12.50;99.90;;;;;;5067232;28;19977;-73
2022/05/01 09:34:18;;;;;;;;;;;12.40;99.90;;;;;;5067801;28;19912;-71
2022/05/01 09:36:44;;;;;;;;;;;12.40;99.90;;;;;;5069292;28;19923;-71
2022/05/01 09:39:09;;;;;;;;;;;12.60;99.90;;;;;;5070989;28;20006;-72
2022/05/01 09:41:41;;;;;;;;;;;12.70;99.90;;;;;;5070237;28;19920;-72
2022/05/01 09:44:14;;;;;;;;;;;12.90;99.90;;;;;;5069444;28;19916;-72
2022/05/01 09:46:39;;;;;;;;;;;12.80;99.90;;;;;;5068642;28;19959;-71
2022/05/01 09:49:06;;;;;;;;;;;12.70;99.90;;;;;;5070195;28;19944;-72
2022/05/01 09:51:31;;;;;;;;;;;12.90;99.90;;;;;;5066544;28;19949;-71
2022/05/01 09:53:57;;;;;;;;;;;12.60;99.90;;;;;;5069519;28;20068;-72
2022/05/01 09:56:24;;;;;;;;;;;12.50;99.90;;;;;;5065456;28;20215;-71
2022/05/01 09:58:59;;;;;;;;;;;12.50;99.90;;;;;;5067961;28;19920;-72
2022/05/01 10:01:25;;;;;;;;;;;12.70;99.90;;;;;;5067817;28;19913;-72
2022/05/01 10:03:52;;;;;;;;;;;12.60;99.90;;;;;;5068837;28;19958;-72
2022/05/01 10:06:18;;;;;;;;;;;12.50;99.90;;;;;;5063124;28;19959;-72
2022/05/01 10:08:45;;;;;;;;;;;12.80;99.90;;;;;;5039886;28;19944;-72
2022/05/01 10:11:16;;;;;;;;;;;12.90;99.90;;;;;;5067500;28;19917;-72
2022/05/01 10:13:43;;;;;;;;;;;12.80;99.90;;;;;;5065289;28;20019;-72
2022/05/01 10:16:11;;;;;;;;;;;12.90;99.90;;;;;;5066602;28;19916;-72
2022/05/01 10:18:38;;;;;;;;;;;13.00;99.90;;;;;;5066179;28;20258;-72
2022/05/01 10:21:04;;;;;;;;;;;13.00;99.90;;;;;;5066062;28;19920;-72
2022/05/01 10:23:30;;;;;;;;;;;13.00;99.90;;;;;;5065030;28;19921;-72
2022/05/01 10:26:25;;;;;;;;;;;13.30;99.90;;;;;;5064598;28;19932;-72
2022/05/01 10:28:51;;;;;;;;;;;13.30;99.90;;;;;;5055930;28;19939;-72
2022/05/01 10:34:28;;;;;;;;;;;13.20;99.90;;;;;;5066868;28;20017;-72
2022/05/01 10:36:54;;;;;;;;;;;13.30;99.90;;;;;;5066727;28;19916;-73
2022/05/01 10:39:20;;;;;;;;;;;13.10;99.90;;;;;;5067745;28;19920;-73
2022/05/01 10:41:47;;;;;;;;;;;13.30;99.90;;;;;;5067175;28;19923;-73
2022/05/01 10:44:26;;;;;;;;;;;13.40;99.90;;;;;;5067424;28;20043;-72
2022/05/01 10:46:53;;;;;;;;;;;13.60;99.90;;;;;;5058065;28;19951;-72
2022/05/01 10:49:45;;;;;;;;;;;13.90;99.90;;;;;;5066043;28;19969;-72
2022/05/01 10:52:21;;;;;;;;;;;14.30;99.90;;;;;;5061700;28;19917;-72
2022/05/01 10:54:54;;;;;;;;;;;14.40;99.90;;;;;;5062396;28;20422;-72
2022/05/01 10:57:20;;;;;;;;;;;14.30;99.90;;;;;;5062921;28;20007;-72
2022/05/01 10:59:49;;;;;;;;;;;14.10;99.90;;;;;;5063324;28;20003;-72
2022/05/01 11:02:28;;;;;;;;;;;13.80;99.90;;;;;;5062452;28;19928;-73
2022/05/01 11:04:55;;;;;;;;;;;14.00;99.90;;;;;;5063899;28;20759;-73
2022/05/01 11:07:21;;;;;;;;;;;14.00;99.90;;;;;;5058992;28;20430;-72
2022/05/01 11:09:48;;;;;;;;;;;13.90;99.90;;;;;;5062222;28;19927;-73
2022/05/01 11:12:15;;;;;;;;;;;13.90;99.90;;;;;;5062698;28;20053;-73
2022/05/01 11:14:49;;;;;;;;;;;14.20;99.90;;;;;;5066232;28;19920;-72
2022/05/01 11:17:15;;;;;;;;;;;14.60;99.90;;;;;;5063230;28;21425;-73
2022/05/01 11:19:45;;;;;;;;;;;14.80;99.90;;;;;;5061889;28;19927;-72
2022/05/01 11:22:14;;;;;;;;;;;14.90;99.90;;;;;;5061019;28;19916;-73
2022/05/01 11:24:41;;;;;;;;;;;14.80;99.90;;;;;;5064119;28;20212;-72
2022/05/01 11:27:10;;;;;;;;;;;14.90;99.90;;;;;;5064151;28;19928;-71
2022/05/01 11:29:35;;;;;;;;;;;14.90;99.90;;;;;;5062794;28;20591;-71
2022/05/01 11:32:16;;;;;;;;;;;14.90;99.90;;;;;;5062836;28;19916;-72
2022/05/01 11:34:48;;;;;;;;;;;15.20;99.90;;;;;;5061089;28;19927;-71
2022/05/01 11:37:14;;;;;;;;;;;15.60;99.90;;;;;;5064524;28;19923;-72
2022/05/01 11:39:46;;;;;;;;;;;16.00;99.90;;;;;;5064113;28;19920;-72
2022/05/01 11:42:27;;;;;;;;;;;16.10;98.00;;;;;;5064446;28;19927;-72
2022/05/01 11:44:56;;;;;;;;;;;16.10;99.80;;;;;;5067252;28;19927;-72
2022/05/01 11:47:23;;;;;;;;;;;16.60;99.90;;;;;;5069709;28;20292;-71
2022/05/01 11:49:50;;;;;;;;;;;17.20;99.50;;;;;;5071848;28;19959;-72
2022/05/01 11:52:16;;;;;;;;;;;17.10;99.60;;;;;;5073903;28;20314;-72
2022/05/01 11:54:55;;;;;;;;;;;17.40;98.60;;;;;;5069489;28;19920;-71
2022/05/01 12:03:21;;;;;;;;;;;17.70;96.50;;;;;;5068856;28;19923;-72
2022/05/01 12:05:48;;;;;;;;;;;17.70;97.30;;;;;;4993756;28;19939;-73
2022/05/01 12:08:14;;;;;;;;;;;17.80;96.90;;;;;;4994794;28;19922;-73
2022/05/01 12:10:40;;;;;;;;;;;17.90;96.70;;;;;;4989391;28;19914;-73
2022/05/01 12:13:23;;;;;;;;;;;18.10;96.50;;;;;;4987052;28;19933;-72
2022/05/01 12:15:50;;;;;;;;;;;18.10;95.20;;;;;;4994208;28;19957;-73
2022/05/01 12:18:17;;;;;;;;;;;17.70;95.10;;;;;;4990559;28;19918;-74
2022/05/01 12:20:42;;;;;;;;;;;17.50;96.80;;;;;;4989884;28;19972;-73
2022/05/01 12:23:18;;;;;;;;;;;17.70;94.90;;;;;;4989704;28;19909;-75
2022/05/01 12:25:49;;;;;;;;;;;17.10;95.30;;;;;;4995047;28;20309;-73
2022/05/01 12:28:15;;;;;;;;;;;16.80;96.00;;;;;;4999488;28;19926;-73
2022/05/01 12:30:42;;;;;;;;;;;16.50;96.50;;;;;;4988797;28;19914;-73
2022/05/01 12:33:16;;;;;;;;;;;16.90;97.10;;;;;;4990692;28;19941;-73
2022/05/01 12:36:01;;;;;;;;;;;17.40;95.90;;;;;;5000198;28;20008;-73
2022/05/01 12:38:28;;;;;;;;;;;18.10;95.30;;;;;;4997935;28;19917;-73
2022/05/01 12:43:53;;;;;;;;;;;19.10;91.50;;;;;;5068450;28;19928;-73
2022/05/01 12:46:22;;;;;;;;;;;18.70;95.30;;;;;;5067765;28;19920;-74
2022/05/01 12:48:47;;;;;;;;;;;18.60;95.10;;;;;;5067040;28;19921;-73
2022/05/01 12:51:13;;;;;;;;;;;18.90;94.60;;;;;;5065933;28;19920;-73
2022/05/01 12:53:38;;;;;;;;;;;18.90;90.90;;;;;;5066281;28;19973;-72
2022/05/01 12:56:15;;;;;;;;;;;17.90;90.70;;;;;;5066265;28;19920;-73
2022/05/01 12:58:41;;;;;;;;;;;17.60;92.10;;;;;;5067374;28;19920;-73
2022/05/01 13:01:08;;;;;;;;;;;18.00;92.90;;;;;;5067560;28;19970;-73
2022/05/01 13:03:38;;;;;;;;;;;18.20;92.00;;;;;;5064752;28;19967;-72
2022/05/01 13:06:04;;;;;;;;;;;18.10;90.20;;;;;;5064529;28;19976;-73
2022/05/01 13:08:32;;;;;;;;;;;17.40;90.10;;;;;;5066607;28;19926;-73
2022/05/01 13:11:08;;;;;;;;;;;17.40;92.00;;;;;;5065633;28;20315;-73
2022/05/01 13:13:47;;;;;;;;;;;17.50;93.20;;;;;;5064929;28;19924;-73
2022/05/01 13:16:13;;;;;;;;;;;18.00;93.20;;;;;;5063870;28;19920;-73
2022/05/01 13:18:39;;;;;;;;;;;18.20;91.70;;;;;;5063441;28;19925;-72
2022/05/01 13:21:04;;;;;;;;;;;17.90;92.50;;;;;;5063152;28;19939;-73
2022/05/01 13:23:30;;;;;;;;;;;17.70;91.60;;;;;;5064321;28;19948;-73
2022/05/01 13:25:55;;;;;;;;;;;17.60;91.70;;;;;;5064689;28;19927;-74
2022/05/01 13:28:21;;;;;;;;;;;17.90;92.70;;;;;;5063370;28;20006;-71
2022/05/01 13:30:47;;;;;;;;;;;17.30;93.70;;;;;;5063969;28;19917;-72
2022/05/01 13:33:12;;;;;;;;;;;16.70;91.60;;;;;;5065670;28;20378;-72
2022/05/01 13:35:38;;;;;;;;;;;16.40;93.10;;;;;;5064570;28;19920;-73
2022/05/01 13:38:04;;;;;;;;;;;16.10;93.70;;;;;;5059975;28;19920;-71
2022/05/01 13:45:58;;;;;;;;;;;16.30;91.90;;;;;;5064953;28;20531;-73
2022/05/01 13:48:24;;;;;;;;;;;16.30;91.40;;;;;;5063277;28;19916;-71
2022/05/01 13:50:49;;;;;;;;;;;16.00;90.40;;;;;;5061914;28;20366;-72
2022/05/01 13:53:15;;;;;;;;;;;15.90;92.80;;;;;;5063139;28;19920;-73
2022/05/01 13:55:41;;;;;;;;;;;15.90;93.80;;;;;;5062052;28;20376;-73
2022/05/01 13:58:06;;;;;;;;;;;15.80;94.40;;;;;;5063363;28;20279;-73
2022/05/01 14:00:33;;;;;;;;;;;15.80;91.90;;;;;;5063226;28;20716;-72
2022/05/01 14:03:00;;;;;;;;;;;15.70;94.10;;;;;;5064965;28;19920;-74
2022/05/01 14:05:25;;;;;;;;;;;15.70;94.10;;;;;;5066395;28;19916;-72
2022/05/01 14:07:51;;;;;;;;;;;15.70;94.80;;;;;;5067044;28;20223;-74
2022/05/01 14:10:17;;;;;;;;;;;15.60;93.40;;;;;;5066092;28;19923;-73
2022/05/01 14:12:46;;;;;;;;;;;15.40;93.30;;;;;;5066949;28;19925;-72
2022/05/01 14:15:11;;;;;;;;;;;15.40;92.60;;;;;;5066326;28;19913;-73
2022/05/01 14:17:37;;;;;;;;;;;15.20;95.10;;;;;;5065242;28;19921;-73
2022/05/01 14:20:03;;;;;;;;;;;15.20;95.30;;;;;;5064675;28;19920;-72
2022/05/01 14:22:30;;;;;;;;;;;15.10;94.80;;;;;;5065445;28;20342;-73
2022/05/01 14:24:55;;;;;;;;;;;14.90;93.80;;;;;;5069892;28;19916;-72
2022/05/01 14:27:21;;;;;;;;;;;14.80;95.40;;;;;;5067116;28;20019;-72
2022/05/01 14:29:47;;;;;;;;;;;15.00;95.10;;;;;;5064615;28;20223;-71
2022/05/01 14:32:18;;;;;;;;;;;15.10;94.50;;;;;;5067519;28;19917;-71
2022/05/01 14:34:51;;;;;;;;;;;14.90;96.00;;;;;;5065542;28;20011;-74
2022/05/01 14:37:20;;;;;;;;;;;14.90;94.30;;;;;;5067499;28;19912;-72
2022/05/01 14:39:46;;;;;;;;;;;15.20;93.60;;;;;;5067432;28;19948;-73
2022/05/01 14:42:16;;;;;;;;;;;15.30;94.70;;;;;;5065882;28;20005;-71
2022/05/01 14:44:48;;;;;;;;;;;15.40;93.90;;;;;;5068670;28;20011;-72
2022/05/01 14:47:18;;;;;;;;;;;15.50;96.80;;;;;;5068465;28;19912;-71
2022/05/01 14:49:46;;;;;;;;;;;15.50;94.70;;;;;;5065652;28;20487;-72
2022/05/01 14:52:13;;;;;;;;;;;15.50;93.20;;;;;;5066835;28;19924;-72
2022/05/01 14:54:40;;;;;;;;;;;15.80;96.00;;;;;;5065181;28;19932;-72
2022/05/01 14:57:10;;;;;;;;;;;15.90;93.90;;;;;;5042008;28;19927;-72
2022/05/01 15:08:01;;;;;;;;;;;15.30;93.40;;;;;;5066496;28;19933;-72
2022/05/01 15:10:26;;;;;;;;;;;15.30;93.70;;;;;;5065984;28;19915;-72